Time;durP1;ratioP1;P1;durP2;ratioP2;P2;SDS_P1;SDS_P2;PMS_P1;PMS_P2;Temp;Humidity;BMP_temperature;BMP_pressure;BME280_temperature;BME280_humidity;BME280_pressure;Samples;Min_cycle;Max_cycle;Signal;HPM_P1;HPM_P2
2023/06/26 00:00:00;;;;;;;34.63;17.58;;;;;;;17.32;61.03;99452.38;5037695;28;20120;-92
2023/06/26 00:02:26;;;;;;;52.90;17.93;;;;;;;17.63;60.38;99506.88;5019363;28;20041;-92
2023/06/26 00:04:53;;;;;;;45.67;17.60;;;;;;;17.45;60.10;99475.19;5020975;28;20052;-91
2023/06/26 00:07:20;;;;;;;39.92;17.55;;;;;;;17.07;59.64;99418.56;4991323;28;20099;-93
2023/06/26 00:09:46;;;;;;;39.90;18.88;;;;;;;17.46;58.90;99477.63;5007685;28;20037;-92
2023/06/26 00:12:13;;;;;;;55.95;19.20;;;;;;;17.32;58.39;99460.69;5021625;28;20041;-92
2023/06/26 00:14:39;;;;;;;31.70;17.43;;;;;;;17.13;58.61;99420.72;5006154;28;20099;-89
2023/06/26 00:17:05;;;;;;;41.83;18.40;;;;;;;17.21;58.96;99432.75;5005239;28;20041;-92
2023/06/26 00:19:33;;;;;;;40.45;18.30;;;;;;;17.50;58.98;99478.50;5018399;23;20303;-93
2023/06/26 00:21:59;;;;;;;32.33;18.30;;;;;;;17.43;57.86;99458.19;5027729;28;20048;-90
2023/06/26 00:24:25;;;;;;;42.07;18.77;;;;;;;17.23;57.95;99430.44;5025891;28;20067;-90
2023/06/26 00:26:51;;;;;;;30.30;17.95;;;;;;;17.57;58.68;99478.69;5045841;28;20501;-90
2023/06/26 00:29:17;;;;;;;38.27;18.77;;;;;;;17.22;59.41;99428.84;5023228;28;20094;-90
2023/06/26 00:31:43;;;;;;;48.23;19.03;;;;;;;17.61;59.03;99490.66;5024446;28;20482;-90
2023/06/26 00:34:09;;;;;;;35.70;17.95;;;;;;;17.56;58.42;99479.06;5043729;28;20061;-91
2023/06/26 00:36:35;;;;;;;37.43;18.60;;;;;;;17.71;58.27;99505.09;5044191;28;20040;-94
2023/06/26 00:39:03;;;;;;;;;;;;;;;17.69;57.24;99507.44;5031294;28;20064;-92
2023/06/26 00:41:29;;;;;;;36.90;17.33;;;;;;;17.17;57.34;99425.53;5056318;28;19920;-91
2023/06/26 00:43:55;;;;;;;32.28;18.55;;;;;;;17.10;57.82;99415.09;5022944;28;20589;-92
2023/06/26 00:46:23;;;;;;;28.08;17.77;;;;;;;17.41;57.26;99457.72;5056930;28;20122;-91
2023/06/26 00:48:54;;;;;;;28.95;18.23;;;;;;;17.18;57.21;99425.16;5023821;28;20029;-90
2023/06/26 00:51:20;;;;;;;30.88;17.60;;;;;;;17.59;57.59;99492.19;5028432;28;20041;-93
2023/06/26 00:53:56;;;;;;;31.17;18.17;;;;;;;17.48;59.54;99468.97;5041472;28;20032;-90
2023/06/26 00:56:23;;;;;;;36.28;18.20;;;;;;;17.30;57.41;99443.66;5057350;28;20137;-91
2023/06/26 00:58:49;;;;;;;28.50;17.88;;;;;;;17.09;57.56;99411.53;5062366;28;20046;-94
2023/06/26 01:01:21;;;;;;;32.50;18.23;;;;;;;17.07;58.09;99413.84;5056904;28;20040;-91
2023/06/26 01:03:53;;;;;;;35.40;18.98;;;;;;;17.07;59.51;99416.59;5025577;28;20044;-90
2023/06/26 01:06:23;;;;;;;40.25;18.52;;;;;;;17.56;58.09;99492.88;5016799;28;20081;-92
2023/06/26 01:08:51;;;;;;;31.55;18.92;;;;;;;17.25;59.62;99443.88;5018356;28;20091;-93
2023/06/26 01:11:19;;;;;;;31.45;18.95;;;;;;;17.00;60.58;99415.63;5036237;28;20053;-92
2023/06/26 01:13:47;;;;;;;37.03;19.35;;;;;;;16.98;61.73;99443.56;5020748;28;20542;-93
2023/06/26 01:16:15;;;;;;;30.42;18.00;;;;;;;16.60;62.75;99402.66;4988309;28;20049;-94
2023/06/26 01:18:42;;;;;;;38.13;17.98;;;;;;;16.71;63.10;99431.34;5000946;28;20046;-91
2023/06/26 01:21:10;;;;;;;28.42;17.55;;;;;;;16.82;62.86;99459.28;5006219;28;20050;-93
2023/06/26 01:24:20;;;;;;;38.50;18.23;;;;;;;17.03;63.01;99490.28;5021252;28;20565;-90
2023/06/26 01:27:06;;;;;;;34.72;18.33;;;;;;;16.70;63.06;99440.81;4961508;23;20061;-90
2023/06/26 01:29:33;;;;;;;38.40;18.25;;;;;;;16.68;62.56;99434.81;5007121;28;20052;-91
2023/06/26 01:32:00;;;;;;;35.25;19.23;;;;;;;16.49;62.85;99413.41;5008659;28;20730;-92
2023/06/26 01:34:29;;;;;;;44.72;18.90;;;;;;;16.46;62.65;99408.56;5013460;28;20041;-92
2023/06/26 01:36:55;;;;;;;40.63;20.73;;;;;;;16.51;62.96;99410.28;5006133;28;20055;-91
2023/06/26 01:39:25;;;;;;;46.35;19.83;;;;;;;16.68;63.40;99443.91;5021405;28;20037;-92
2023/06/26 01:41:53;;;;;;;44.53;21.40;;;;;;;16.55;63.48;99427.72;5026222;28;20036;-90
2023/06/26 01:44:28;;;;;;;39.15;19.98;;;;;;;16.41;63.56;99422.59;5024953;28;20040;-91
2023/06/26 01:47:01;;;;;;;35.53;18.95;;;;;;;16.45;64.01;99434.53;5025885;28;20037;-91
2023/06/26 01:49:49;;;;;;;36.25;19.50;;;;;;;16.91;63.84;99504.13;5026071;28;20060;-91
2023/06/26 01:52:27;;;;;;;34.53;19.33;;;;;;;16.84;64.21;99501.16;5010532;28;20075;-91
2023/06/26 01:55:10;;;;;;;48.58;19.95;;;;;;;16.12;64.24;99405.19;5006923;28;20036;-92
2023/06/26 01:57:39;;;;;;;33.80;19.02;;;;;;;16.53;65.22;99485.25;5018988;28;20098;-91
2023/06/26 02:00:08;;;;;;;40.75;19.80;;;;;;;16.32;65.43;99461.34;5043058;28;20033;-91
2023/06/26 02:02:42;;;;;;;45.92;21.25;;;;;;;16.42;65.52;99477.47;5048474;28;20486;-91
2023/06/26 02:05:12;;;;;;;44.83;20.45;;;;;;;16.24;65.84;99445.75;5023005;28;20492;-93
2023/06/26 02:08:15;;;;;;;38.45;20.17;;;;;;;16.44;65.34;99477.88;5065451;23;20536;-91
2023/06/26 02:10:48;;;;;;;40.38;20.13;;;;;;;16.44;65.40;99480.66;5044275;28;20040;-91
2023/06/26 02:13:17;;;;;;;45.13;21.17;;;;;;;16.13;65.60;99434.41;5075995;28;20116;-91
2023/06/26 02:15:43;;;;;;;45.55;22.08;;;;;;;16.05;65.66;99416.00;5062080;28;20433;-91
2023/06/26 02:18:10;;;;;;;37.42;20.10;;;;;;;16.50;65.44;99478.47;5041100;28;20044;-91
2023/06/26 02:21:03;;;;;;;46.35;21.77;;;;;;;16.67;65.98;99503.03;5043852;28;20041;-90
2023/06/26 02:28:34;;;;;;;;;;;;;;;;;;;;;
2023/06/26 02:31:56;;;;;;;53.72;20.73;;;;;;;16.53;66.25;99490.78;5014958;28;20478;-90
2023/06/26 02:34:22;;;;;;;42.20;21.02;;;;;;;16.33;65.93;99451.16;4968449;28;20399;-91
2023/06/26 02:36:48;;;;;;;61.88;22.08;;;;;;;16.71;66.05;99508.66;4965202;28;20054;-89
2023/06/26 02:39:15;;;;;;;71.82;22.67;;;;;;;16.14;66.02;99410.38;4966832;28;20042;-91
2023/06/26 02:41:44;;;;;;;57.83;22.40;;;;;;;16.21;66.08;99427.94;4981136;28;20046;-92
2023/06/26 02:44:12;;;;;;;67.57;21.95;;;;;;;16.23;65.87;99424.84;4966626;28;20034;-91
2023/06/26 02:46:38;;;;;;;58.88;22.48;;;;;;;16.12;66.64;99407.94;4979765;28;20056;-92
2023/06/26 02:49:23;;;;;;;69.25;22.70;;;;;;;16.32;66.62;99441.25;4983953;28;20041;-92
2023/06/26 02:52:40;;;;;;;56.13;22.30;;;;;;;16.84;67.24;99509.44;4999233;28;20041;-90
2023/06/26 02:58:57;;;;;;;46.22;21.13;;;;;;;16.51;66.77;99441.44;4996825;28;20076;-92
2023/06/26 03:02:00;;;;;;;37.20;20.35;;;;;;;16.45;65.98;99415.22;4967683;28;20088;-92
2023/06/26 03:04:52;;;;;;;40.95;20.00;;;;;;;16.82;65.91;99451.00;4974745;28;20108;-93
2023/06/26 03:07:46;;;;;;;49.42;21.15;;;;;;;17.28;65.15;99503.97;4967390;28;20104;-90
2023/06/26 03:10:13;;;;;;;45.17;21.35;;;;;;;17.32;65.17;99505.69;4981756;28;20527;-91
2023/06/26 03:12:39;;;;;;;44.47;20.55;;;;;;;17.17;64.71;99461.44;4966635;28;20038;-91
2023/06/26 03:15:05;;;;;;;45.90;22.08;;;;;;;17.10;64.69;99431.66;4983035;28;20569;-91
2023/06/26 03:17:57;;;;;;;47.25;20.55;;;;;;;17.71;63.44;99494.84;4987040;28;20045;-92
2023/06/26 03:21:30;;;;;;;49.65;19.77;;;;;;;17.67;59.11;99471.03;5022572;28;20129;-94
2023/06/26 03:51:49;;;;;;;;;;;;;;;;;;;;;
2023/06/26 04:06:40;;;;;;;35.70;17.98;;;;;;;18.78;54.35;99403.22;5006868;23;20378;-93
2023/06/26 04:09:33;;;;;;;37.38;18.17;;;;;;;18.83;54.62;99399.34;4937128;28;20051;-93
2023/06/26 04:12:11;;;;;;;38.15;18.88;;;;;;;19.46;53.87;99487.63;4959068;23;20055;-96
2023/06/26 04:22:25;;;;;;;44.33;17.55;;;;;;;19.84;53.70;99491.50;4947687;29;20036;-94
2023/06/26 04:27:42;;;;;;;27.45;15.27;;;;;;;19.93;51.54;99461.53;4890315;29;20052;-89
2023/06/26 04:30:10;;;;;;;26.57;14.43;;;;;;;20.22;52.17;99483.34;4920580;29;20059;-93
2023/06/26 04:32:36;;;;;;;32.60;15.82;;;;;;;19.92;52.14;99426.59;4901828;29;20044;-91
2023/06/26 04:35:02;;;;;;;22.77;13.63;;;;;;;20.06;51.64;99430.78;4885384;29;20045;-91
2023/06/26 04:37:29;;;;;;;29.17;14.50;;;;;;;20.27;52.65;99453.31;4863930;29;20133;-91
2023/06/26 04:40:03;;;;;;;21.77;14.45;;;;;;;20.31;51.85;99448.59;4858917;29;20155;-90
2023/06/26 04:42:32;;;;;;;32.75;14.25;;;;;;;20.49;51.98;99468.28;4907849;29;20071;-89
2023/06/26 04:44:58;;;;;;;31.73;15.60;;;;;;;20.56;51.43;99464.81;4880765;29;20056;-90
2023/06/26 04:50:59;;;;;;;25.15;14.10;;;;;;;20.72;51.71;99454.31;4916482;29;20048;-92
2023/06/26 04:53:29;;;;;;;23.27;14.00;;;;;;;21.07;52.23;99484.53;4921324;29;20062;-92
2023/06/26 04:55:55;;;;;;;22.98;12.55;;;;;;;20.88;52.32;99432.69;4880387;29;20294;-91
2023/06/26 04:58:38;;;;;;;20.30;12.85;;;;;;;21.14;51.40;99453.22;4911048;29;20047;-91
2023/06/26 05:01:06;;;;;;;19.90;12.75;;;;;;;20.88;50.95;99407.69;4911400;29;20044;-91
2023/06/26 05:03:32;;;;;;;16.92;10.85;;;;;;;20.93;50.55;99397.41;4896230;29;20043;-92
2023/06/26 05:05:58;;;;;;;21.55;13.20;;;;;;;21.33;50.61;99455.00;4895363;29;20051;-91
2023/06/26 05:09:15;;;;;;;29.23;12.93;;;;;;;21.58;50.79;99475.53;4908772;29;20058;-92
2023/06/26 05:12:08;;;;;;;21.80;12.77;;;;;;;21.67;50.66;99480.78;4911302;29;20106;-93
2023/06/26 05:15:03;;;;;;;19.25;12.32;;;;;;;21.68;50.43;99485.16;4926480;29;20544;-92
2023/06/26 05:17:31;;;;;;;31.55;14.13;;;;;;;21.23;51.01;99403.69;4928443;29;20110;-93
2023/06/26 05:19:57;;;;;;;18.83;12.85;;;;;;;21.30;51.27;99398.19;4929886;29;20055;-92
2023/06/26 05:22:23;;;;;;;20.43;12.23;;;;;;;21.37;50.16;99402.25;4961327;28;20039;-94
2023/06/26 05:25:06;;;;;;;22.45;11.10;;;;;;;21.72;49.28;99458.19;4945824;29;20283;-91
2023/06/26 05:27:33;;;;;;;19.27;12.65;;;;;;;21.75;50.26;99467.72;4926213;29;20043;-92
2023/06/26 05:29:59;;;;;;;18.30;10.65;;;;;;;21.60;48.22;99427.88;4963377;29;20086;-91
2023/06/26 05:32:30;;;;;;;18.38;10.52;;;;;;;21.55;47.76;99417.09;4961737;28;20050;-91
2023/06/26 05:34:58;;;;;;;42.58;15.38;;;;;;;21.95;48.15;99482.22;4922795;29;20063;-90
2023/06/26 05:37:50;;;;;;;15.38;10.02;;;;;;;22.10;47.99;99481.16;4948764;29;20043;-90
2023/06/26 05:40:17;;;;;;;24.92;9.85;;;;;;;21.66;47.51;99404.09;4932754;29;20051;-91
2023/06/26 05:42:45;;;;;;;19.00;11.15;;;;;;;21.75;47.10;99412.09;4950699;28;20039;-90
2023/06/26 05:45:12;;;;;;;27.10;12.15;;;;;;;22.16;46.90;99478.84;4926222;29;20051;-89
2023/06/26 05:48:29;;;;;;;19.95;10.55;;;;;;;22.27;47.72;99488.06;4925006;29;20046;-93
2023/06/26 05:50:55;;;;;;;21.33;12.05;;;;;;;22.07;47.83;99445.72;4953469;29;20050;-92
2023/06/26 05:53:23;;;;;;;11.82;9.13;;;;;;;22.31;46.77;99463.00;4943454;29;20039;-90
2023/06/26 05:55:49;;;;;;;15.85;8.95;;;;;;;22.16;45.32;99443.44;4939215;29;20495;-85
2023/06/26 05:58:17;;;;;;;15.32;9.70;;;;;;;22.17;45.16;99433.09;4938020;29;20074;-85
2023/06/26 06:00:44;;;;;;;25.52;10.52;;;;;;;22.33;46.34;99441.16;4956578;28;20042;-86
2023/06/26 06:03:10;;;;;;;16.55;10.15;;;;;;;22.39;46.00;99437.59;4975780;28;20173;-86
2023/06/26 06:05:36;;;;;;;16.50;9.40;;;;;;;22.73;46.07;99477.16;4953340;28;20070;-86
2023/06/26 06:08:06;;;;;;;11.63;9.15;;;;;;;22.72;44.72;99456.06;4942019;29;20141;-86
2023/06/26 06:10:32;;;;;;;23.48;12.30;;;;;;;22.77;45.87;99454.88;4958522;28;20035;-89
2023/06/26 06:12:58;;;;;;;16.97;10.50;;;;;;;22.89;45.74;99467.69;4979601;28;20432;-87
2023/06/26 06:15:24;;;;;;;16.50;9.70;;;;;;;22.84;44.92;99463.28;4974804;28;20047;-89
2023/06/26 06:17:50;;;;;;;27.83;9.45;;;;;;;23.00;44.61;99471.34;4939982;29;20035;-87
2023/06/26 06:20:19;;;;;;;14.40;9.40;;;;;;;23.08;44.75;99469.34;4939983;29;20529;-87
2023/06/26 06:22:45;;;;;;;25.05;10.13;;;;;;;22.81;44.49;99419.47;4965059;28;20042;-89
2023/06/26 06:25:11;;;;;;;17.15;9.75;;;;;;;23.10;44.35;99458.63;4976702;28;20133;-88
2023/06/26 06:27:38;;;;;;;14.85;10.00;;;;;;;22.87;44.65;99414.31;4975934;28;20070;-89
2023/06/26 06:30:04;;;;;;;;;;;;;;;23.29;43.81;99472.22;4963574;28;20062;-87
2023/06/26 06:32:31;;;;;;;17.70;9.80;;;;;;;22.94;43.05;99411.56;4978035;28;19926;-88
2023/06/26 06:34:57;;;;;;;22.15;9.77;;;;;;;23.28;43.72;99450.28;4950841;29;20070;-89
2023/06/26 06:37:23;;;;;;;18.92;9.73;;;;;;;23.29;44.04;99449.09;4924423;29;20039;-90
2023/06/26 06:39:49;;;;;;;17.83;10.48;;;;;;;23.17;44.09;99428.75;4923480;29;20103;-89
2023/06/26 06:42:15;;;;;;;16.33;9.50;;;;;;;23.27;43.19;99429.16;4934938;29;20046;-89
2023/06/26 06:44:42;;;;;;;18.65;9.25;;;;;;;23.08;41.50;99408.00;4963317;28;20471;-89
2023/06/26 06:47:08;;;;;;;18.00;9.30;;;;;;;23.25;42.50;99418.41;4943806;28;20042;-90
2023/06/26 06:49:34;;;;;;;18.60;9.73;;;;;;;23.39;41.49;99435.16;4960751;28;20053;-89
2023/06/26 06:52:00;;;;;;;22.90;9.63;;;;;;;23.18;43.48;99384.94;4960863;28;20038;-89
2023/06/26 06:54:28;;;;;;;35.83;12.38;;;;;;;23.37;41.81;99422.81;4945731;28;20055;-89
2023/06/26 06:56:54;;;;;;;32.97;11.05;;;;;;;23.45;42.28;99436.38;4959546;28;20035;-90
2023/06/26 06:59:20;;;;;;;38.53;10.93;;;;;;;23.18;41.11;99384.94;4943752;28;20053;-88
2023/06/26 07:01:48;;;;;;;23.33;11.30;;;;;;;23.32;42.63;99400.91;4965465;28;20062;-90
2023/06/26 07:04:21;;;;;;;21.40;11.20;;;;;;;23.24;42.45;99371.38;4970709;28;20050;-92
2023/06/26 07:06:48;;;;;;;22.30;10.73;;;;;;;23.23;42.25;99348.28;4931291;29;20035;-95
2023/06/26 07:09:19;;;;;;;19.67;9.75;;;;;;;23.42;41.98;99366.63;4954051;28;20509;-91
2023/06/26 07:11:57;;;;;;;14.10;9.05;;;;;;;23.85;42.14;99428.84;4953144;29;20039;-91
2023/06/26 07:14:23;;;;;;;14.40;9.02;;;;;;;23.92;40.93;99422.44;4943502;29;20047;-94
2023/06/26 07:16:56;;;;;;;25.55;9.85;;;;;;;23.88;41.04;99400.13;4938213;29;20069;-91
2023/06/26 07:19:22;;;;;;;20.23;9.10;;;;;;;23.87;41.19;99381.78;4954016;28;20050;-90
2023/06/26 07:21:52;;;;;;;15.70;9.57;;;;;;;24.27;39.92;99437.53;4963428;28;20129;-91
2023/06/26 07:24:24;;;;;;;13.60;8.35;;;;;;;24.37;39.45;99443.13;4918319;29;20047;-93
2023/06/26 07:27:00;;;;;;;14.90;8.95;;;;;;;23.92;39.37;99366.59;4948108;29;20109;-87
2023/06/26 07:29:29;;;;;;;14.18;8.60;;;;;;;24.18;39.65;99404.44;4936507;29;20047;-94
2023/06/26 07:31:55;;;;;;;16.00;9.40;;;;;;;24.11;40.24;99368.97;4946711;28;20051;-92
2023/06/26 07:34:22;;;;;;;;;;;;;;;24.69;39.26;99435.84;4965974;28;20051;-95
2023/06/26 07:36:49;;;;;;;23.05;9.20;;;;;;;24.60;38.60;99417.53;4934766;28;20414;-91
2023/06/26 07:39:17;;;;;;;19.85;8.88;;;;;;;24.51;36.99;99436.72;4942449;29;20134;-90
2023/06/26 07:41:44;;;;;;;30.98;11.50;;;;;;;24.38;38.71;99410.38;4953639;29;20040;-89
2023/06/26 07:44:10;;;;;;;27.67;9.68;;;;;;;24.33;38.84;99391.22;4945542;29;20054;-87
2023/06/26 07:46:36;;;;;;;17.80;7.97;;;;;;;24.72;38.83;99432.25;4958951;29;20247;-87
2023/06/26 07:49:04;;;;;;;13.93;8.60;;;;;;;24.73;36.90;99419.84;4938469;29;20043;-87
2023/06/26 07:51:31;;;;;;;18.85;8.23;;;;;;;24.58;37.53;99394.75;4939000;29;20040;-87
2023/06/26 07:53:57;;;;;;;16.45;9.73;;;;;;;24.69;38.34;99397.50;4954880;29;20050;-89
2023/06/26 07:56:23;;;;;;;18.35;8.88;;;;;;;24.82;37.76;99393.03;4954191;29;20067;-89
2023/06/26 07:59:04;;;;;;;13.40;7.95;;;;;;;24.55;37.17;99324.91;4941730;29;20126;-91
2023/06/26 08:01:30;;;;;;;11.25;8.80;;;;;;;24.88;37.80;99365.47;4953484;23;20039;-88
2023/06/26 08:03:56;;;;;;;15.57;8.18;;;;;;;25.23;37.43;99409.22;4985208;28;20045;-89
2023/06/26 08:06:22;;;;;;;34.17;8.80;;;;;;;24.99;38.14;99352.19;4965771;28;20393;-89
2023/06/26 08:08:48;;;;;;;19.42;8.75;;;;;;;25.34;36.07;99391.56;4965975;28;20130;-90
2023/06/26 08:11:14;;;;;;;14.45;9.60;;;;;;;25.14;34.45;99361.31;4983341;28;20038;-89
2023/06/26 08:13:40;;;;;;;15.23;9.18;;;;;;;25.28;36.13;99388.41;4994148;28;20136;-89
2023/06/26 08:16:06;;;;;;;14.85;9.68;;;;;;;25.17;35.26;99359.72;4994156;28;20046;-89
2023/06/26 08:18:57;;;;;;;28.83;10.02;;;;;;;25.43;37.06;99412.28;4999989;28;20045;-92
2023/06/26 08:21:23;;;;;;;35.30;11.20;;;;;;;25.51;37.13;99404.63;4961679;28;20047;-90
2023/06/26 08:24:09;;;;;;;19.90;9.00;;;;;;;25.18;36.97;99362.09;4979327;28;20042;-92
2023/06/26 08:26:37;;;;;;;12.23;9.00;;;;;;;25.67;36.43;99404.88;5025031;28;20764;-89
2023/06/26 08:29:07;;;;;;;13.75;9.18;;;;;;;25.90;36.23;99412.72;4990025;28;20050;-90
2023/06/26 08:31:35;;;;;;;11.15;7.97;;;;;;;26.01;35.19;99399.38;5008347;28;20034;-92
2023/06/26 08:34:04;;;;;;;24.65;10.02;;;;;;;26.16;34.93;99402.84;5014121;28;20052;-90
2023/06/26 08:36:31;;;;;;;29.45;9.00;;;;;;;25.85;34.78;99343.13;4996740;28;20061;-88
2023/06/26 08:38:58;;;;;;;19.92;9.35;;;;;;;26.19;36.54;99373.19;5006890;28;20049;-89
2023/06/26 08:41:25;;;;;;;11.63;8.15;;;;;;;26.14;33.24;99373.66;5018990;28;20495;-92
2023/06/26 08:43:52;;;;;;;12.90;9.25;;;;;;;25.96;33.78;99385.03;4987206;28;20068;-87
2023/06/26 08:46:19;;;;;;;15.05;10.23;;;;;;;25.67;34.95;99370.50;5017592;28;20052;-91
2023/06/26 08:48:50;;;;;;;11.93;8.88;;;;;;;25.87;34.39;99419.16;5000371;28;20038;-88
2023/06/26 08:51:18;;;;;;;23.15;8.65;;;;;;;25.53;34.97;99380.63;4980373;28;20100;-87
2023/06/26 08:53:58;;;;;;;24.27;8.82;;;;;;;25.72;34.69;99414.84;4999380;28;20053;-89
2023/06/26 08:56:30;;;;;;;46.42;9.63;;;;;;;25.45;34.91;99373.47;4989704;28;20053;-88
2023/06/26 08:58:57;;;;;;;16.27;9.25;;;;;;;25.54;35.19;99399.00;4983308;28;20091;-89
2023/06/26 09:01:24;;;;;;;15.05;8.73;;;;;;;25.50;36.01;99392.63;4993456;28;20065;-88
2023/06/26 09:03:53;;;;;;;19.50;9.00;;;;;;;25.77;34.62;99408.81;5014383;28;20085;-88
2023/06/26 09:06:19;;;;;;;15.00;8.50;;;;;;;25.79;34.80;99400.78;4951817;28;20051;-89
2023/06/26 09:08:45;;;;;;;;;;;;;;;25.92;35.82;99396.28;4999043;28;20038;-89
2023/06/26 09:11:13;;;;;;;15.90;8.65;;;;;;;25.92;35.12;99401.88;4998459;28;20481;-88
2023/06/26 09:13:40;;;;;;;14.60;8.85;;;;;;;25.75;35.01;99383.22;4994764;28;20042;-89
2023/06/26 09:16:09;;;;;;;15.65;8.80;;;;;;;25.69;34.49;99371.66;4955838;28;20050;-89
2023/06/26 09:18:36;;;;;;;24.88;9.23;;;;;;;25.69;33.99;99370.88;4983352;28;20057;-90
2023/06/26 09:21:10;;;;;;;14.45;8.20;;;;;;;25.85;34.77;99387.94;4987061;28;20042;-96
2023/06/26 09:23:36;;;;;;;27.15;8.73;;;;;;;25.74;34.30;99362.81;4988394;28;20034;-90
2023/06/26 09:26:05;;;;;;;11.77;8.23;;;;;;;25.99;34.11;99387.00;4967904;28;20779;-89
2023/06/26 09:28:50;;;;;;;21.65;8.45;;;;;;;25.59;34.53;99332.56;4998776;23;21243;-92
2023/06/26 09:34:35;;;;;;;15.50;8.50;;;;;;;26.01;34.44;99357.38;1120870;23;20318;31
2023/06/26 09:37:04;;;;;;;18.02;8.10;;;;;;;26.10;33.45;99364.50;4971637;28;20118;-92
2023/06/26 09:39:44;;;;;;;16.15;8.55;;;;;;;25.82;33.59;99318.75;4954638;28;20098;-91
2023/06/26 09:42:33;;;;;;;23.23;9.05;;;;;;;25.72;33.64;99336.44;4973006;28;20047;-92
2023/06/26 09:45:19;;;;;;;18.15;9.45;;;;;;;25.40;35.26;99306.75;4969140;28;20045;-90
2023/06/26 09:47:46;;;;;;;15.20;8.93;;;;;;;25.60;32.72;99359.38;4948100;28;20512;-92
2023/06/26 09:50:47;;;;;;;22.85;8.68;;;;;;;25.19;32.06;99332.09;4961261;28;20146;-91
2023/06/26 09:53:18;;;;;;;21.27;8.57;;;;;;;24.93;32.98;99305.50;4988055;23;20069;-94
2023/06/26 09:55:45;;;;;;;12.15;8.45;;;;;;;25.08;32.30;99304.97;5001934;28;20415;-94
2023/06/26 09:58:14;;;;;;;11.52;7.65;;;;;;;25.46;32.84;99365.88;4991635;28;20047;-90
2023/06/26 10:00:46;;;;;;;13.07;8.43;;;;;;;25.01;33.05;99301.47;5002834;23;20081;-91
2023/06/26 10:03:14;;;;;;;39.17;9.32;;;;;;;25.52;33.56;99376.22;4975741;28;20042;-89
2023/06/26 10:05:40;;;;;;;34.65;8.95;;;;;;;25.27;33.80;99367.22;5028097;28;20419;-95
2023/06/26 10:08:19;;;;;;;47.63;9.43;;;;;;;24.93;34.42;99348.22;4988305;28;20062;-90
2023/06/26 10:10:54;;;;;;;88.53;11.13;;;;;;;24.77;34.37;99347.97;4973377;28;20218;-92
2023/06/26 10:13:27;;;;;;;16.97;8.80;;;;;;;24.66;34.50;99375.16;4959025;28;20610;-88
2023/06/26 10:15:56;;;;;;;25.98;8.73;;;;;;;24.50;35.98;99362.47;4987035;28;20043;-91
2023/06/26 10:18:29;;;;;;;30.67;8.35;;;;;;;24.42;35.00;99366.47;4999722;28;20066;-87
2023/06/26 10:20:58;;;;;;;26.67;8.82;;;;;;;24.31;36.10;99363.72;4958821;28;20041;-89
2023/06/26 10:23:28;;;;;;;15.10;7.35;;;;;;;24.17;37.68;99327.44;5011125;28;20135;-89
2023/06/26 10:26:00;;;;;;;35.78;8.80;;;;;;;24.40;38.08;99340.91;5006346;28;20049;-88
2023/06/26 10:28:30;;;;;;;23.65;7.75;;;;;;;24.77;35.52;99382.31;4993988;28;20069;-86
2023/06/26 10:30:58;;;;;;;24.70;8.18;;;;;;;24.82;34.84;99379.06;4983373;28;20049;-86
2023/06/26 10:33:26;;;;;;;20.83;7.40;;;;;;;24.87;34.09;99366.69;4970200;28;20046;-87
2023/06/26 10:35:52;;;;;;;;;;;;;;;24.92;35.09;99368.22;4978945;28;20042;-86
2023/06/26 10:38:20;;;;;;;25.52;7.72;;;;;;;24.85;34.86;99350.28;4948628;28;19929;-86
2023/06/26 10:40:49;;;;;;;15.27;7.75;;;;;;;24.85;35.70;99336.31;4986121;28;20495;-87
2023/06/26 10:43:30;;;;;;;13.75;7.70;;;;;;;25.16;35.31;99349.72;4983368;28;20052;-85
2023/06/26 10:45:59;;;;;;;10.05;8.05;;;;;;;25.25;33.85;99342.44;4978942;28;20050;-84
2023/06/26 10:48:30;;;;;;;23.70;10.93;;;;;;;25.33;33.73;99328.41;4995901;28;20129;-88
2023/06/26 10:50:57;;;;;;;18.85;9.55;;;;;;;25.39;35.07;99316.34;4996843;28;20419;-88
2023/06/26 10:53:34;;;;;;;19.70;8.55;;;;;;;25.68;34.78;99353.28;4983947;28;20049;-85
2023/06/26 10:56:04;;;;;;;23.17;11.27;;;;;;;25.57;34.93;99335.00;5017119;28;20045;-89
2023/06/26 10:58:50;;;;;;;20.85;9.98;;;;;;;25.70;34.08;99341.69;5012593;28;20056;-88
2023/06/26 11:01:22;;;;;;;14.32;8.20;;;;;;;25.61;35.33;99310.56;4983461;28;20132;-89
2023/06/26 11:04:02;;;;;;;19.70;8.55;;;;;;;25.44;34.53;99285.13;4982491;28;20038;-88
2023/06/26 11:06:31;;;;;;;17.40;9.75;;;;;;;25.63;33.33;99297.75;4981065;28;20566;-87
2023/06/26 11:09:10;;;;;;;10.63;8.05;;;;;;;26.09;32.53;99330.06;4977689;28;20064;-88
2023/06/26 11:11:59;;;;;;;14.88;9.30;;;;;;;26.15;32.49;99333.22;5011485;28;20168;-85
2023/06/26 11:14:29;;;;;;;10.70;8.48;;;;;;;26.11;32.50;99338.84;5002696;28;20049;-86
2023/06/26 11:16:57;;;;;;;14.77;8.38;;;;;;;26.01;30.93;99325.75;5013077;28;20046;-85
2023/06/26 11:19:27;;;;;;;21.27;8.38;;;;;;;25.89;31.92;99315.88;5030034;28;20131;-89
2023/06/26 11:21:58;;;;;;;16.42;8.30;;;;;;;26.00;31.53;99299.75;4984189;28;20534;-88
2023/06/26 11:24:25;;;;;;;11.52;8.15;;;;;;;26.29;31.75;99305.03;4994412;28;20045;-87
2023/06/26 11:26:52;;;;;;;24.60;8.88;;;;;;;26.20;33.01;99266.31;4998032;28;20041;-87
2023/06/26 11:29:18;;;;;;;14.15;7.82;;;;;;;26.71;32.02;99311.28;4966941;28;20044;-86
2023/06/26 11:31:45;;;;;;;22.48;9.23;;;;;;;26.41;31.38;99253.22;5015576;28;20153;-86
2023/06/26 11:34:13;;;;;;;17.10;7.57;;;;;;;26.79;29.39;99300.75;4998613;28;20223;-89
2023/06/26 11:36:46;;;;;;;56.85;9.48;;;;;;;26.71;30.41;99289.63;5000080;28;20069;-86
2023/06/26 11:39:13;;;;;;;23.20;7.97;;;;;;;26.76;30.89;99298.81;4997209;28;20060;-84
2023/06/26 11:41:41;;;;;;;19.35;7.78;;;;;;;26.62;30.39;99300.59;4988111;28;20081;-84
2023/06/26 11:44:10;;;;;;;14.80;7.32;;;;;;;26.43;29.80;99313.25;4988716;28;20506;-86
2023/06/26 11:46:37;;;;;;;10.68;6.80;;;;;;;26.22;28.81;99308.72;4974072;28;20172;-84
2023/06/26 11:49:05;;;;;;;16.15;7.00;;;;;;;26.17;28.88;99294.38;5010973;28;20064;-86
2023/06/26 11:51:31;;;;;;;12.23;7.10;;;;;;;25.97;29.03;99283.00;4987784;28;20043;-85
2023/06/26 11:53:58;;;;;;;;;;;;;;;26.24;29.41;99297.06;4979084;28;20043;-85
2023/06/26 11:56:26;;;;;;;12.82;7.43;;;;;;;26.26;30.17;99255.44;4979003;28;20009;-84
2023/06/26 11:59:06;;;;;;;12.98;7.25;;;;;;;26.82;29.84;99280.28;5014076;28;20038;-82
2023/06/26 12:01:34;;;;;;;82.18;9.38;;;;;;;27.04;29.90;99258.28;5015253;28;20050;-84
2023/06/26 12:04:03;;;;;;;12.32;7.50;;;;;;;27.44;30.42;99275.28;5015088;28;20134;-84
2023/06/26 12:06:34;;;;;;;12.05;7.40;;;;;;;27.74;27.35;99265.88;5013970;28;20120;-84
2023/06/26 12:09:06;;;;;;;12.73;7.35;;;;;;;27.82;27.06;99234.44;4998469;28;20857;-87
2023/06/26 12:11:34;;;;;;;14.65;8.43;;;;;;;28.21;27.28;99257.31;5013582;28;20038;-82
2023/06/26 12:14:02;;;;;;;13.90;8.35;;;;;;;28.19;27.64;99223.25;4995144;28;20046;-82
2023/06/26 12:16:30;;;;;;;20.77;8.85;;;;;;;28.57;26.65;99255.31;5003179;28;20561;-84
2023/06/26 12:19:03;;;;;;;12.65;6.70;;;;;;;28.64;25.48;99239.53;4997562;28;20042;-86
2023/06/26 12:21:52;;;;;;;15.10;8.53;;;;;;;28.84;25.83;99256.31;5009013;28;20034;-83
2023/06/26 12:24:21;;;;;;;24.77;8.20;;;;;;;28.61;26.07;99229.16;4978578;28;20066;-85
2023/06/26 12:26:58;;;;;;;32.58;8.55;;;;;;;28.45;27.45;99241.19;4981184;28;20050;-85
2023/06/26 12:29:33;;;;;;;17.42;8.38;;;;;;;27.99;27.33;99226.09;4994522;28;20044;-85
2023/06/26 12:32:00;;;;;;;24.38;8.60;;;;;;;28.09;28.27;99247.56;4996396;28;20042;-84
2023/06/26 12:34:33;;;;;;;25.02;8.65;;;;;;;28.00;28.85;99233.28;4996636;28;20046;-86
2023/06/26 12:37:08;;;;;;;32.97;9.48;;;;;;;27.72;28.54;99245.88;5014463;28;20062;-87
2023/06/26 12:39:51;;;;;;;13.82;7.90;;;;;;;27.53;28.48;99250.25;5017669;28;20037;-86
2023/06/26 12:42:20;;;;;;;14.75;8.13;;;;;;;27.59;28.85;99245.72;5018935;28;20042;-83
2023/06/26 12:44:48;;;;;;;20.38;7.72;;;;;;;27.27;29.02;99195.78;4997840;28;20045;-87
2023/06/26 12:47:15;;;;;;;9.32;6.82;;;;;;;27.48;28.51;99234.66;5014137;28;20571;-83
2023/06/26 12:49:45;;;;;;;13.70;7.75;;;;;;;27.47;28.64;99232.31;5016211;28;20093;-90
2023/06/26 12:52:15;;;;;;;18.25;7.53;;;;;;;27.54;27.90;99216.09;4995985;28;20044;-87